Terminal Aerodrome Forecast
Issued by NWS

Home | Current Version | Previous Version | Text Only | Print | Product List | Glossary On
Versions: 1 2 3 4 5 6 7 8 9 10 11 12 13 14 15 16
000
FTUS45 KABQ 281100 RRA
TAFAEG
TAF
KAEG 281141Z 2812/2912 02009KT P6SM SCT120
     FM281500 06007KT P6SM VCSH SCT070 BKN110
     FM281700 15011KT P6SM SCT090 SCT150
     FM282200 15014KT P6SM VCTS SCT070CB BKN130
     FM290100 26008KT P6SM VCSH BKN100=

USA.gov is the U.S. government's official web portal to all federal, state and local government web resources and services.